Terminal Aerodrome Forecast
Issued by NWS New Orleans/Baton Rouge, LA

Home | Current Version | Previous Version | Text Only | Print | Product List | Glossary On
Versions: 1 2 3 4 5 6 7 8 9 10 11 12 13 14 15 16
642
FTUS44 KLIX 261126
TAFBTR
TAF
KBTR 261126Z 2612/2712 04004KT P6SM FEW040
     FM262200 12004KT P6SM SCT150
     FM270000 18004KT P6SM SCT150=

USA.gov is the U.S. government's official web portal to all federal, state and local government web resources and services.